nws-alerts: Checking more than four warning/county codes can delay the loading of your pages. You should use a cron job to get the data.
EllijayWeather Station Historical Data
Daily Summary for December 3, 2018 Units:  English    Metric   Both
Daily Weekly Monthly Yearly Custom
  High: Low: Average:
Temperature: 57 °F 37.6 °F 46 °F
Dew Point: 43.3 °F 20.3 °F 31.4 °F
Humidity: 76% 39% 57%
Wind Speed: 6mph 0mph 0.2mph
Wind Gust: 9mph - -
Wind- - WNW
Pressure: 30.11 in 29.88 in -
Precipitation: 0 in    
Historical Graphs
 
 
Tabular Data for December 3, 2018
Time Temperature Dew Point Pressure Wind Wind Speed Wind Gust Humidity Rainfall Rate (Hourly) solar
00:04 41.7 °F 25.3 °F 29.89 in Calm     52% 0 in meteobridge W/m2
00:09 41.5 °F 25.2 °F 29.88 in Calm     52% 0 in meteobridge W/m2
00:14 41.5 °F 25.2 °F 29.89 in Calm     52% 0 in meteobridge W/m2
00:19 41.4 °F 25 °F 29.88 in Calm     52% 0 in meteobridge W/m2
00:24 41.4 °F 25 °F 29.88 in Calm     52% 0 in meteobridge W/m2
00:29 41.2 °F 24.8 °F 29.88 in Calm     52% 0 in meteobridge W/m2
00:34 41 °F 24.8 °F 29.88 in Calm     52% 0 in meteobridge W/m2
00:39 40.8 °F 24.6 °F 29.89 in Calm     52% 0 in meteobridge W/m2
00:44 40.6 °F 24.4 °F 29.89 in Calm     52% 0 in meteobridge W/m2
00:49 40.5 °F 24.3 °F 29.89 in Calm     52% 0 in meteobridge W/m2
00:54 40.5 °F 24.3 °F 29.89 in Calm     52% 0 in meteobridge W/m2
00:59 40.3 °F 24.1 °F 29.89 in Calm     52% 0 in meteobridge W/m2
01:04 40.3 °F 24.1 °F 29.89 in Calm     52% 0 in meteobridge W/m2
01:09 39.9 °F 23.7 °F 29.89 in Calm     52% 0 in meteobridge W/m2
01:14 39.9 °F 23.7 °F 29.89 in Calm     52% 0 in meteobridge W/m2
01:19 39.7 °F 23.5 °F 29.89 in Calm     52% 0 in meteobridge W/m2
01:24 39.7 °F 23.2 °F 29.89 in Calm     51% 0 in meteobridge W/m2
01:29 39.6 °F 23 °F 29.89 in Calm     51% 0 in meteobridge W/m2
01:34 39.6 °F 23 °F 29.89 in Calm     51% 0 in meteobridge W/m2
01:39 39.4 °F 22.8 °F 29.90 in Calm     51% 0 in meteobridge W/m2
01:44 39.2 °F 22.6 °F 29.89 in Calm     51% 0 in meteobridge W/m2
01:49 39 °F 22.5 °F 29.89 in Calm     51% 0 in meteobridge W/m2
01:54 39 °F 22.5 °F 29.90 in Calm     51% 0 in meteobridge W/m2
01:59 38.8 °F 22.3 °F 29.90 in Calm     51% 0 in meteobridge W/m2
02:04 38.7 °F 22.1 °F 29.90 in Calm     51% 0 in meteobridge W/m2
02:09 38.7 °F 22.1 °F 29.90 in Calm     51% 0 in meteobridge W/m2
02:14 38.7 °F 22.1 °F 29.90 in Calm     51% 0 in meteobridge W/m2
02:19 38.5 °F 21.9 °F 29.90 in Calm     51% 0 in meteobridge W/m2
02:24 38.5 °F 21.9 °F 29.90 in Calm     51% 0 in meteobridge W/m2
02:29 38.5 °F 21.9 °F 29.90 in Calm     51% 0 in meteobridge W/m2
02:34 38.5 °F 21.9 °F 29.91 in Calm     51% 0 in meteobridge W/m2
02:39 38.3 °F 21.7 °F 29.90 in Calm     51% 0 in meteobridge W/m2
02:44 38.1 °F 21.6 °F 29.91 in Calm     51% 0 in meteobridge W/m2
02:49 38.1 °F 21.2 °F 29.91 in Calm     50% 0 in meteobridge W/m2
02:54 38.1 °F 21.2 °F 29.91 in Calm     50% 0 in meteobridge W/m2
02:59 38.1 °F 21.2 °F 29.91 in Calm     50% 0 in meteobridge W/m2
03:04 37.9 °F 21 °F 29.91 in Calm     50% 0 in meteobridge W/m2
03:09 37.9 °F 21 °F 29.91 in Calm     50% 0 in meteobridge W/m2
03:14 37.9 °F 21 °F 29.91 in Calm     50% 0 in meteobridge W/m2
03:19 37.8 °F 20.8 °F 29.91 in Calm     50% 0 in meteobridge W/m2
03:24 37.8 °F 20.8 °F 29.91 in Calm     50% 0 in meteobridge W/m2
03:29 37.8 °F 20.8 °F 29.91 in Calm     50% 0 in meteobridge W/m2
03:34 37.6 °F 20.7 °F 29.92 in Calm     50% 0 in meteobridge W/m2
03:39 37.8 °F 20.8 °F 29.92 in Calm     50% 0 in meteobridge W/m2
03:44 37.8 °F 20.8 °F 29.93 in Calm     50% 0 in meteobridge W/m2
03:49 37.8 °F 20.3 °F 29.93 in Calm     49% 0 in meteobridge W/m2
03:54 37.9 °F 20.5 °F 29.93 in Calm     49% 0 in meteobridge W/m2
03:59 37.9 °F 20.5 °F 29.92 in Calm     49% 0 in meteobridge W/m2
04:04 38.1 °F 20.7 °F 29.93 in Calm     49% 0 in meteobridge W/m2
04:09 38.3 °F 20.3 °F 29.93 in Calm     48% 0 in meteobridge W/m2
04:14 38.5 °F 20.5 °F 29.93 in Calm     48% 0 in meteobridge W/m2
04:19 38.7 °F 20.7 °F 29.93 in Calm     48% 0 in meteobridge W/m2
04:24 38.7 °F 20.7 °F 29.92 in Calm     48% 0 in meteobridge W/m2
04:29 38.8 °F 20.3 °F 29.92 in Calm     47% 0 in meteobridge W/m2
04:34 38.8 °F 20.3 °F 29.92 in Calm     47% 0 in meteobridge W/m2
04:39 39 °F 20.5 °F 29.92 in Calm     47% 0 in meteobridge W/m2
04:44 39.2 °F 20.7 °F 29.92 in Calm     47% 0 in meteobridge W/m2
04:49 39.2 °F 20.7 °F 29.92 in Calm     47% 0 in meteobridge W/m2
04:54 39.4 °F 20.8 °F 29.92 in Calm     47% 0 in meteobridge W/m2
04:59 39.4 °F 20.8 °F 29.92 in Calm     47% 0 in meteobridge W/m2
05:04 39.6 °F 21 °F 29.92 in Calm     47% 0 in meteobridge W/m2
05:09 39.6 °F 20.5 °F 29.92 in Calm     46% 0 in meteobridge W/m2
05:14 39.6 °F 20.5 °F 29.92 in Calm     46% 0 in meteobridge W/m2
05:19 39.7 °F 20.7 °F 29.92 in Calm     46% 0 in meteobridge W/m2
05:24 39.7 °F 20.7 °F 29.93 in Calm     46% 0 in meteobridge W/m2
05:29 39.7 °F 20.7 °F 29.93 in Calm     46% 0 in meteobridge W/m2
05:34 39.9 °F 20.8 °F 29.92 in Calm     46% 0 in meteobridge W/m2
05:39 39.9 °F 20.8 °F 29.92 in Calm     46% 0 in meteobridge W/m2
05:44 39.9 °F 20.8 °F 29.92 in Calm     46% 0 in meteobridge W/m2
05:49 39.9 °F 20.8 °F 29.92 in Calm     46% 0 in meteobridge W/m2
05:54 39.9 °F 20.8 °F 29.92 in Calm     46% 0 in meteobridge W/m2
05:59 40.1 °F 21 °F 29.92 in Calm     46% 0 in meteobridge W/m2
06:04 39.9 °F 20.8 °F 29.92 in Calm     46% 0 in meteobridge W/m2
06:09 39.9 °F 20.8 °F 29.93 in Calm     46% 0 in meteobridge W/m2
06:14 39.9 °F 20.8 °F 29.93 in Calm     46% 0 in meteobridge W/m2
06:19 39.9 °F 20.8 °F 29.93 in Calm     46% 0 in meteobridge W/m2
06:24 39.9 °F 20.8 °F 29.93 in Calm     46% 0 in meteobridge W/m2
06:29 39.7 °F 20.7 °F 29.93 in Calm     46% 0 in meteobridge W/m2
06:34 39.7 °F 20.7 °F 29.93 in Calm     46% 0 in meteobridge W/m2
06:39 39.7 °F 20.7 °F 29.93 in Calm     46% 0 in meteobridge W/m2
06:44 39.7 °F 20.7 °F 29.93 in Calm     46% 0 in meteobridge W/m2
06:49 39.7 °F 20.7 °F 29.94 in Calm     46% 0 in meteobridge W/m2
06:54 39.7 °F 20.7 °F 29.94 in Calm     46% 0 in meteobridge W/m2
06:59 39.7 °F 20.7 °F 29.94 in Calm     46% 0 in meteobridge W/m2
07:04 39.9 °F 20.8 °F 29.95 in Calm     46% 0 in meteobridge W/m2
07:09 39.9 °F 20.8 °F 29.95 in Calm     46% 0 in meteobridge W/m2
07:14 39.9 °F 20.8 °F 29.96 in Calm     46% 0 in meteobridge W/m2
07:19 39.9 °F 20.8 °F 29.96 in Calm     46% 0 in meteobridge W/m2
07:24 39.9 °F 20.8 °F 29.96 in Calm     46% 0 in meteobridge W/m2
07:29 40.1 °F 21 °F 29.96 in Calm     46% 0 in meteobridge W/m2
07:34 40.3 °F 21.2 °F 29.96 in Calm     46% 0 in meteobridge W/m2
07:39 40.3 °F 21.2 °F 29.96 in Calm     46% 0 in meteobridge W/m2
07:44 40.3 °F 20.7 °F 29.96 in Calm     45% 0 in meteobridge W/m2
07:49 40.5 °F 20.8 °F 29.96 in Calm     45% 0 in meteobridge W/m2
07:54 40.5 °F 20.8 °F 29.97 in Calm     45% 0 in meteobridge W/m2
07:59 40.5 °F 20.8 °F 29.97 in Calm     45% 0 in meteobridge W/m2
08:04 40.6 °F 21 °F 29.97 in Calm     45% 0 in meteobridge W/m2
08:09 40.6 °F 21 °F 29.97 in Calm     45% 0 in meteobridge W/m2
08:14 40.8 °F 21.2 °F 29.97 in Calm     45% 0 in meteobridge W/m2
08:19 41 °F 21.2 °F 29.98 in Calm     45% 0 in meteobridge W/m2
08:24 41.4 °F 21 °F 29.97 in Calm     44% 0 in meteobridge W/m2
08:29 41.5 °F 21.2 °F 29.97 in Calm     44% 0 in meteobridge W/m2
08:34 41.5 °F 21.2 °F 29.98 in Calm     44% 0 in meteobridge W/m2
08:39 41.9 °F 21.6 °F 29.98 in Calm     44% 0 in meteobridge W/m2
08:44 42.1 °F 21.7 °F 29.98 in Calm     44% 0 in meteobridge W/m2
08:49 42.3 °F 21.9 °F 29.99 in Calm     44% 0 in meteobridge W/m2
08:54 42.4 °F 21.6 °F 29.99 in Calm     43% 0 in meteobridge W/m2
08:59 42.6 °F 21.7 °F 29.99 in Calm     43% 0 in meteobridge W/m2
09:04 43.2 °F 22.1 °F 29.99 in Calm     43% 0 in meteobridge W/m2
09:09 43.3 °F 22.3 °F 29.99 in Calm     43% 0 in meteobridge W/m2
09:14 43.9 °F 22.3 °F 30.00 in Calm     42% 0 in meteobridge W/m2
09:19 44.4 °F 22.8 °F 30.00 in Calm     42% 0 in meteobridge W/m2
09:24 45 °F 23.2 °F 30.00 in Calm     42% 0 in meteobridge W/m2
09:29 45.3 °F 23.5 °F 30.00 in Calm     42% 0 in meteobridge W/m2
09:34 46 °F 23.7 °F 30.00 in Calm     41% 0 in meteobridge W/m2
09:39 46.9 °F 23.9 °F 29.99 in Calm     40% 0 in meteobridge W/m2
09:44 47.8 °F 24.6 °F 29.99 in Calm     40% 0 in meteobridge W/m2
09:49 48.7 °F 24.8 °F 29.99 in Calm     39% 0 in meteobridge W/m2
09:54 49.3 °F 26.6 °F 29.99 in Calm     41% 0 in meteobridge W/m2
09:59 49.3 °F 36 °F 29.99 in Calm   1 mph 60% 0 in meteobridge W/m2
10:04 49.6 °F 41 °F 29.99 in Calm   2 mph 72% 0 in meteobridge W/m2
10:09 50.2 °F 41.9 °F 30.00 in Calm     73% 0 in meteobridge W/m2
10:14 50.4 °F 42.8 °F 30.00 in Calm     75% 0 in meteobridge W/m2
10:19 50.7 °F 43.2 °F 29.99 in Calm     75% 0 in meteobridge W/m2
10:24 51.3 °F 42.6 °F 29.99 in Calm   2 mph 72% 0 in meteobridge W/m2
10:29 51.6 °F 43.3 °F 30.00 in Calm   1 mph 73% 0 in meteobridge W/m2
10:34 52 °F 42.8 °F 30.00 in Calm     71% 0 in meteobridge W/m2
10:39 52.2 °F 42.3 °F 30.00 in Calm     69% 0 in meteobridge W/m2
10:44 52.3 °F 42.1 °F 30.01 in NNW 0.9 mph 2 mph 68% 0 in meteobridge W/m2
10:49 52.9 °F 41.9 °F 30.01 in Calm     66% 0 in meteobridge W/m2
10:54 53.1 °F 42.4 °F 30.01 in North 2.9 mph 3 mph 67% 0 in meteobridge W/m2
10:59 53.2 °F 41 °F 30.01 in Calm   2 mph 63% 0 in meteobridge W/m2
11:04 53.8 °F 41 °F 30.01 in Calm   4 mph 62% 0 in meteobridge W/m2
11:09 54.1 °F 41.4 °F 30.00 in Calm   2 mph 62% 0 in meteobridge W/m2
11:14 54.5 °F 41.4 °F 30.00 in NW 0.9 mph 4 mph 61% 0 in meteobridge W/m2
11:19 54.7 °F 41.9 °F 30.00 in NNW 4 mph 4 mph 62% 0 in meteobridge W/m2
11:24 54.5 °F 40.8 °F 30.00 in NNE 0.9 mph 3 mph 60% 0 in meteobridge W/m2
11:29 54.5 °F 40.8 °F 30.01 in Calm   2 mph 60% 0 in meteobridge W/m2
11:34 54.5 °F 41.7 °F 30.00 in Calm   2 mph 62% 0 in meteobridge W/m2
11:39 54.7 °F 41.5 °F 30.01 in Calm     61% 0 in meteobridge W/m2
11:44 54.7 °F 41.5 °F 30.00 in Calm     61% 0 in meteobridge W/m2
11:49 54.7 °F 42.3 °F 30.00 in Calm   3 mph 63% 0 in meteobridge W/m2
11:54 54.9 °F 42.1 °F 30.00 in Calm   1 mph 62% 0 in meteobridge W/m2
11:59 55 °F 41.4 °F 30.00 in Calm   1 mph 60% 0 in meteobridge W/m2
12:04 55 °F 42.3 °F 29.99 in Calm   1 mph 62% 0 in meteobridge W/m2
12:09 55 °F 41.4 °F 29.99 in West 0.9 mph 3 mph 60% 0 in meteobridge W/m2
12:14 55.2 °F 41.5 °F 29.99 in NW 0.9 mph 3 mph 60% 0 in meteobridge W/m2
12:19 55.8 °F 43 °F 29.98 in Calm     62% 0 in meteobridge W/m2
12:24 56.1 °F 42.8 °F 29.98 in NNW 0.9 mph 1 mph 61% 0 in meteobridge W/m2
12:29 56.3 °F 40.8 °F 29.98 in Calm   4 mph 56% 0 in meteobridge W/m2
12:34 56.5 °F 41 °F 29.98 in WSW 0.9 mph 4 mph 56% 0 in meteobridge W/m2
12:39 56.7 °F 40.3 °F 29.98 in WNW 2 mph 2 mph 54% 0 in meteobridge W/m2
12:44 56.5 °F 40.1 °F 29.98 in Calm   1 mph 54% 0 in meteobridge W/m2
12:49 56.5 °F 39.6 °F 29.97 in Calm   8 mph 53% 0 in meteobridge W/m2
12:54 56.7 °F 39.7 °F 29.97 in Calm   4 mph 53% 0 in meteobridge W/m2
12:59 56.7 °F 40.6 °F 29.97 in Calm   1 mph 55% 0 in meteobridge W/m2
13:04 56.7 °F 39.7 °F 29.97 in NW 2 mph 6 mph 53% 0 in meteobridge W/m2
13:09 56.7 °F 40.3 °F 29.97 in Calm   2 mph 54% 0 in meteobridge W/m2
13:14 56.7 °F 39.7 °F 29.96 in Calm     53% 0 in meteobridge W/m2
13:19 56.8 °F 40.5 °F 29.97 in Calm   1 mph 54% 0 in meteobridge W/m2
13:24 57 °F 39.6 °F 29.97 in Calm   1 mph 52% 0 in meteobridge W/m2
13:29 57 °F 38.5 °F 29.97 in NNW 2 mph 2 mph 50% 0 in meteobridge W/m2
13:34 56.8 °F 38.5 °F 29.96 in WNW 2 mph 5 mph 50% 0 in meteobridge W/m2
13:39 56.8 °F 39.9 °F 29.96 in Calm   1 mph 53% 0 in meteobridge W/m2
13:44 56.8 °F 38.8 °F 29.97 in NNW 4.9 mph 5 mph 51% 0 in meteobridge W/m2
13:49 56.7 °F 38.7 °F 29.97 in Calm     51% 0 in meteobridge W/m2
13:54 56.7 °F 39.2 °F 29.97 in Calm   1 mph 52% 0 in meteobridge W/m2
13:59 56.7 °F 39.2 °F 29.97 in North 6 mph 6 mph 52% 0 in meteobridge W/m2
14:04 56.5 °F 38.7 °F 29.97 in Calm   1 mph 51% 0 in meteobridge W/m2
14:09 56.3 °F 39.9 °F 29.97 in North 2 mph 9 mph 54% 0 in meteobridge W/m2
14:14 56.1 °F 39.2 °F 29.97 in Calm   2 mph 53% 0 in meteobridge W/m2
14:19 56.1 °F 38.7 °F 29.98 in Calm   1 mph 52% 0 in meteobridge W/m2
14:24 56.1 °F 40.1 °F 29.97 in Calm     55% 0 in meteobridge W/m2
14:29 55.9 °F 39.6 °F 29.97 in Calm   1 mph 54% 0 in meteobridge W/m2
14:34 55.9 °F 40.5 °F 29.97 in Calm     56% 0 in meteobridge W/m2
14:39 55.9 °F 39.6 °F 29.97 in Calm   5 mph 54% 0 in meteobridge W/m2
14:44 55.9 °F 39.9 °F 29.97 in Calm     55% 0 in meteobridge W/m2
14:49 55.8 °F 40.3 °F 29.97 in Calm   1 mph 56% 0 in meteobridge W/m2
14:54 55.8 °F 39.4 °F 29.96 in Calm     54% 0 in meteobridge W/m2
14:59 55.8 °F 40.8 °F 29.97 in Calm   3 mph 57% 0 in meteobridge W/m2
15:04 55.8 °F 39.4 °F 29.97 in NNW 2 mph 2 mph 54% 0 in meteobridge W/m2
15:09 55.9 °F 39.9 °F 29.97 in Calm     55% 0 in meteobridge W/m2
15:14 55.9 °F 38.5 °F 29.97 in NNW 2.9 mph 3 mph 52% 0 in meteobridge W/m2
15:19 55.9 °F 38.5 °F 29.97 in Calm     52% 0 in meteobridge W/m2
15:24 55.9 °F 39.6 °F 29.97 in Calm     54% 0 in meteobridge W/m2
15:29 55.8 °F 39.9 °F 29.97 in Calm   3 mph 55% 0 in meteobridge W/m2
15:34 55.6 °F 40.1 °F 29.97 in Calm     56% 0 in meteobridge W/m2
15:39 55.2 °F 39.4 °F 29.98 in Calm   1 mph 55% 0 in meteobridge W/m2
15:44 55.2 °F 39.4 °F 29.98 in Calm   2 mph 55% 0 in meteobridge W/m2
15:49 55 °F 39.6 °F 29.98 in Calm     56% 0 in meteobridge W/m2
15:54 54.9 °F 39.9 °F 29.98 in Calm     57% 0 in meteobridge W/m2
15:59 54.7 °F 39.4 °F 29.98 in Calm     56% 0 in meteobridge W/m2
16:04 54.7 °F 40.3 °F 29.98 in Calm     58% 0 in meteobridge W/m2
16:09 54.3 °F 39.4 °F 29.99 in Calm     57% 0 in meteobridge W/m2
16:14 54.3 °F 39.9 °F 29.99 in Calm     58% 0 in meteobridge W/m2
16:19 54.1 °F 39.7 °F 29.99 in Calm     58% 0 in meteobridge W/m2
16:24 54 °F 40.8 °F 29.99 in Calm     61% 0 in meteobridge W/m2
16:29 53.8 °F 40.6 °F 30.00 in Calm   2 mph 61% 0 in meteobridge W/m2
16:34 53.4 °F 39.9 °F 30.00 in Calm   3 mph 60% 0 in meteobridge W/m2
16:39 53.2 °F 40.6 °F 30.00 in Calm   2 mph 62% 0 in meteobridge W/m2
16:44 53.1 °F 39.9 °F 30.00 in Calm   1 mph 61% 0 in meteobridge W/m2
16:49 53.1 °F 39.6 °F 30.00 in Calm     60% 0 in meteobridge W/m2
16:54 52.9 °F 40.3 °F 30.00 in Calm     62% 0 in meteobridge W/m2
16:59 52.5 °F 40.3 °F 30.00 in Calm     63% 0 in meteobridge W/m2
17:04 52.3 °F 40.1 °F 30.00 in Calm     63% 0 in meteobridge W/m2
17:09 52.2 °F 40.3 °F 30.00 in Calm     64% 0 in meteobridge W/m2
17:14 51.8 °F 40.1 °F 30.00 in Calm     64% 0 in meteobridge W/m2
17:19 51.4 °F 39.7 °F 30.00 in Calm     64% 0 in meteobridge W/m2
17:24 51.3 °F 39 °F 30.00 in Calm     63% 0 in meteobridge W/m2
17:29 51.1 °F 39.4 °F 30.01 in Calm     64% 0 in meteobridge W/m2
17:34 50.9 °F 39.2 °F 30.01 in Calm     64% 0 in meteobridge W/m2
17:39 50.5 °F 39.2 °F 30.01 in Calm     65% 0 in meteobridge W/m2
17:44 50.4 °F 39.4 °F 30.01 in Calm     66% 0 in meteobridge W/m2
17:49 50.2 °F 39.2 °F 30.01 in Calm     66% 0 in meteobridge W/m2
17:54 49.8 °F 38.8 °F 30.01 in Calm     66% 0 in meteobridge W/m2
17:59 49.5 °F 39.4 °F 30.02 in Calm     68% 0 in meteobridge W/m2
18:04 49.3 °F 39.6 °F 30.02 in Calm     69% 0 in meteobridge W/m2
18:09 48.9 °F 39.9 °F 30.02 in Calm     71% 0 in meteobridge W/m2
18:14 48.7 °F 40.1 °F 30.02 in Calm     72% 0 in meteobridge W/m2
18:19 48.4 °F 38.7 °F 30.02 in Calm   1 mph 69% 0 in meteobridge W/m2
18:24 48.4 °F 39.7 °F 30.02 in Calm     72% 0 in meteobridge W/m2
18:29 48.2 °F 38.5 °F 30.03 in Calm   3 mph 69% 0 in meteobridge W/m2
18:34 48 °F 38.3 °F 30.03 in Calm   1 mph 69% 0 in meteobridge W/m2
18:39 48 °F 38.7 °F 30.03 in Calm     70% 0 in meteobridge W/m2
18:44 48 °F 38.3 °F 30.03 in Calm     69% 0 in meteobridge W/m2
18:49 48 °F 39 °F 30.03 in Calm     71% 0 in meteobridge W/m2
18:54 47.8 °F 37.8 °F 30.04 in Calm   2 mph 68% 0 in meteobridge W/m2
18:59 47.8 °F 37.8 °F 30.04 in Calm   2 mph 68% 0 in meteobridge W/m2
19:04 47.8 °F 37 °F 30.04 in Calm   3 mph 66% 0 in meteobridge W/m2
19:09 47.8 °F 37 °F 30.04 in Calm   3 mph 66% 0 in meteobridge W/m2
19:14 47.8 °F 37.4 °F 30.04 in Calm   3 mph 67% 0 in meteobridge W/m2
19:19 47.8 °F 37 °F 30.05 in Calm     66% 0 in meteobridge W/m2
19:24 47.7 °F 36.9 °F 30.05 in Calm   2 mph 66% 0 in meteobridge W/m2
19:29 47.7 °F 37.2 °F 30.05 in Calm   5 mph 67% 0 in meteobridge W/m2
19:34 47.7 °F 36.9 °F 30.05 in Calm   4 mph 66% 0 in meteobridge W/m2
19:39 47.7 °F 36.9 °F 30.05 in Calm   6 mph 66% 0 in meteobridge W/m2
19:44 47.7 °F 36.9 °F 30.05 in Calm     66% 0 in meteobridge W/m2
19:49 47.7 °F 36.9 °F 30.05 in Calm   1 mph 66% 0 in meteobridge W/m2
19:54 47.7 °F 37.2 °F 30.06 in Calm     67% 0 in meteobridge W/m2
19:58 47.5 °F 37 °F 30.06 in Calm   1 mph 67% 0 in meteobridge W/m2
20:04 47.1 °F 36.7 °F 30.06 in Calm     67% 0 in meteobridge W/m2
20:09 46.9 °F 36.5 °F 30.06 in Calm   4 mph 67% 0 in meteobridge W/m2
20:14 46.9 °F 36.9 °F 30.07 in Calm   4 mph 68% 0 in meteobridge W/m2
20:19 46.8 °F 36.7 °F 30.07 in WNW 2.9 mph 6 mph 68% 0 in meteobridge W/m2
20:24 46.4 °F 36.5 °F 30.07 in South 2.9 mph 6 mph 68% 0 in meteobridge W/m2
20:29 46 °F 36.5 °F 30.07 in Calm   7 mph 69% 0 in meteobridge W/m2
20:34 45.9 °F 36.3 °F 30.07 in Calm   8 mph 69% 0 in meteobridge W/m2
20:39 45.5 °F 36 °F 30.08 in West 2 mph 5 mph 69% 0 in meteobridge W/m2
20:44 45.1 °F 36 °F 30.08 in Calm   9 mph 70% 0 in meteobridge W/m2
20:49 44.8 °F 35.6 °F 30.08 in Calm   5 mph 70% 0 in meteobridge W/m2
20:54 44.4 °F 35.2 °F 30.08 in WNW 2.9 mph 3 mph 70% 0 in meteobridge W/m2
20:59 44.2 °F 35.1 °F 30.08 in Calm   9 mph 70% 0 in meteobridge W/m2
21:04 44.1 °F 34.9 °F 30.09 in Calm   7 mph 70% 0 in meteobridge W/m2
21:09 43.7 °F 34.5 °F 30.09 in NNW 0.9 mph 5 mph 70% 0 in meteobridge W/m2
21:14 43.5 °F 34.3 °F 30.09 in WNW 2 mph 6 mph 70% 0 in meteobridge W/m2
21:19 43.2 °F 34.3 °F 30.09 in NNE 0.9 mph 6 mph 71% 0 in meteobridge W/m2
21:24 43.2 °F 34.3 °F 30.10 in Calm   5 mph 71% 0 in meteobridge W/m2
21:29 43 °F 34.5 °F 30.10 in WNW 2.9 mph 8 mph 72% 0 in meteobridge W/m2
21:34 42.6 °F 34.2 °F 30.09 in Calm   4 mph 72% 0 in meteobridge W/m2
21:39 42.4 °F 34 °F 30.09 in WNW 2 mph 7 mph 72% 0 in meteobridge W/m2
21:44 42.4 °F 34 °F 30.09 in Calm   1 mph 72% 0 in meteobridge W/m2
21:49 42.3 °F 33.8 °F 30.09 in NNW 0.9 mph 4 mph 72% 0 in meteobridge W/m2
21:54 42.3 °F 33.8 °F 30.09 in NNW 2.9 mph 5 mph 72% 0 in meteobridge W/m2
21:59 42.1 °F 33.8 °F 30.10 in NNW 2 mph 2 mph 72% 0 in meteobridge W/m2
22:04 41.9 °F 33.6 °F 30.10 in West 4 mph 4 mph 72% 0 in meteobridge W/m2
22:09 41.7 °F 33.6 °F 30.10 in Calm     73% 0 in meteobridge W/m2
22:14 41.5 °F 33.3 °F 30.10 in Calm   1 mph 72% 0 in meteobridge W/m2
22:19 41.4 °F 33.4 °F 30.10 in Calm   1 mph 73% 0 in meteobridge W/m2
22:24 41.4 °F 33.6 °F 30.10 in Calm   1 mph 74% 0 in meteobridge W/m2
22:29 41.2 °F 33.4 °F 30.10 in Calm   1 mph 74% 0 in meteobridge W/m2
22:34 41 °F 33.4 °F 30.11 in Calm   2 mph 74% 0 in meteobridge W/m2
22:39 40.8 °F 32.9 °F 30.10 in Calm   4 mph 73% 0 in meteobridge W/m2
22:44 40.6 °F 33.1 °F 30.11 in NW 0.9 mph 2 mph 74% 0 in meteobridge W/m2
22:49 40.6 °F 33.1 °F 30.11 in Calm   5 mph 74% 0 in meteobridge W/m2
22:54 40.5 °F 32.9 °F 30.11 in Calm   2 mph 74% 0 in meteobridge W/m2
22:59 40.3 °F 32.7 °F 30.11 in NW 0.9 mph 1 mph 74% 0 in meteobridge W/m2
23:04 40.3 °F 32.7 °F 30.10 in Calm     74% 0 in meteobridge W/m2
23:09 39.9 °F 32.4 °F 30.11 in Calm     74% 0 in meteobridge W/m2
23:14 39.7 °F 32.2 °F 30.11 in Calm   4 mph 74% 0 in meteobridge W/m2
23:19 39.7 °F 32.2 °F 30.11 in Calm     74% 0 in meteobridge W/m2
23:24 39.6 °F 32 °F 30.11 in Calm     74% 0 in meteobridge W/m2
23:29 39.6 °F 32 °F 30.11 in Calm     74% 0 in meteobridge W/m2
23:34 39.4 °F 31.8 °F 30.11 in Calm     74% 0 in meteobridge W/m2
23:39 39.2 °F 32 °F 30.11 in Calm   2 mph 75% 0 in meteobridge W/m2
23:44 39 °F 31.8 °F 30.11 in Calm     75% 0 in meteobridge W/m2
23:49 38.8 °F 31.6 °F 30.11 in Calm     75% 0 in meteobridge W/m2
23:54 38.7 °F 31.5 °F 30.11 in Calm     75% 0 in meteobridge W/m2
23:59 38.5 °F 31.6 °F 30.11 in Calm     76% 0 in meteobridge W/m2
EllijayWeather
Compliments of Weather Underground - 2.5 mb